地図

経路データ

SID SEASON NUMBER BASIN SUBBASIN NAME ISO_TIME NATURE LAT LON WMO_WIND WMO_PRES WMO_AGENCY TRACK_TYPE DIST2LAND LANDFALL IFLAG USA_AGENCY USA_ATCF_ID USA_LAT USA_LON USA_RECORD USA_STATUS USA_WIND USA_PRES USA_SSHS USA_R34_NE USA_R34_SE USA_R34_SW USA_R34_NW USA_R50_NE USA_R50_SE USA_R50_SW USA_R50_NW USA_R64_NE USA_R64_SE USA_R64_SW USA_R64_NW USA_POCI USA_ROCI USA_RMW USA_EYE TOKYO_LAT TOKYO_LON TOKYO_GRADE TOKYO_WIND TOKYO_PRES TOKYO_R50_DIR TOKYO_R50_LONG TOKYO_R50_SHORT TOKYO_R30_DIR TOKYO_R30_LONG TOKYO_R30_SHORT TOKYO_LAND CMA_LAT CMA_LON CMA_CAT CMA_WIND CMA_PRES HKO_LAT HKO_LON HKO_CAT HKO_WIND HKO_PRES NEWDELHI_LAT NEWDELHI_LON NEWDELHI_GRADE NEWDELHI_WIND NEWDELHI_PRES NEWDELHI_CI NEWDELHI_DP NEWDELHI_POCI REUNION_LAT REUNION_LON REUNION_TYPE REUNION_WIND REUNION_PRES REUNION_TNUM REUNION_CI REUNION_RMW REUNION_R34_NE REUNION_R34_SE REUNION_R34_SW REUNION_R34_NW REUNION_R50_NE REUNION_R50_SE REUNION_R50_SW REUNION_R50_NW REUNION_R64_NE REUNION_R64_SE REUNION_R64_SW REUNION_R64_NW BOM_LAT BOM_LON BOM_TYPE BOM_WIND BOM_PRES BOM_TNUM BOM_CI BOM_RMW BOM_R34_NE BOM_R34_SE BOM_R34_SW BOM_R34_NW BOM_R50_NE BOM_R50_SE BOM_R50_SW BOM_R50_NW BOM_R64_NE BOM_R64_SE BOM_R64_SW BOM_R64_NW BOM_ROCI BOM_POCI BOM_EYE BOM_POS_METHOD BOM_PRES_METHOD NADI_LAT NADI_LON NADI_CAT NADI_WIND NADI_PRES WELLINGTON_LAT WELLINGTON_LON WELLINGTON_WIND WELLINGTON_PRES DS824_LAT DS824_LON DS824_STAGE DS824_WIND DS824_PRES TD9636_LAT TD9636_LON TD9636_STAGE TD9636_WIND TD9636_PRES TD9635_LAT TD9635_LON TD9635_WIND TD9635_PRES TD9635_ROCI NEUMANN_LAT NEUMANN_LON NEUMANN_CLASS NEUMANN_WIND NEUMANN_PRES MLC_LAT MLC_LON MLC_CLASS MLC_WIND MLC_PRES USA_GUST BOM_GUST BOM_GUST_PER REUNION_GUST REUNION_GUST_PER USA_SEAHGT USA_SEARAD_NE USA_SEARAD_SE USA_SEARAD_SW USA_SEARAD_NW STORM_SPEED STORM_DIR
1940263N12279 1940 67 NA CS NOT_NAMED 1940-09-18 12:00:00 TS 12.0000 -81.5000 25 hurdat_atl main 222 198 O_____________ hurdat_atl AL061940 12.0000 -81.5000 TD 25 -1 4 299
1940263N12279 1940 67 NA CS NOT_NAMED 1940-09-18 15:00:00 TS 12.1025 -81.6900 main 198 175 P_____________ AL061940 12.1025 -81.6900 TD 25 -1 4 297
1940263N12279 1940 67 NA CS NOT_NAMED 1940-09-18 18:00:00 TS 12.2000 -81.9000 25 hurdat_atl main 175 152 O_____________ hurdat_atl AL061940 12.2000 -81.9000 TD 25 -1 5 293
1940263N12279 1940 67 NA CS NOT_NAMED 1940-09-18 21:00:00 TS 12.2925 -82.1425 main 152 119 P_____________ AL061940 12.2925 -82.1425 TD 27 -1 5 292
1940263N12279 1940 67 NA CS NOT_NAMED 1940-09-19 00:00:00 TS 12.4000 -82.4000 30 hurdat_atl main 119 97 O_____________ hurdat_atl AL061940 12.4000 -82.4000 TD 30 -1 5 295
1940263N12279 1940 67 NA CS NOT_NAMED 1940-09-19 03:00:00 TS 12.5275 -82.6501 main 86 65 P_____________ AL061940 12.5275 -82.6501 TD 32 -1 6 302
1940263N12279 1940 67 NA CS NOT_NAMED 1940-09-19 06:00:00 TS 12.7000 -82.9000 35 hurdat_atl main 65 43 O_____________ hurdat_atl AL061940 12.7000 -82.9000 TS 35 0 6 309
1940263N12279 1940 67 NA CS NOT_NAMED 1940-09-19 09:00:00 TS 12.9124 -83.1351 main 43 10 P_____________ AL061940 12.9124 -83.1352 TS 37 0 7 316
1940263N12279 1940 67 NA CS NOT_NAMED 1940-09-19 12:00:00 TS 13.2000 -83.4000 40 hurdat_atl main 10 0 O_____________ hurdat_atl AL061940 13.2000 -83.4000 TS 40 0 9 319
1940263N12279 1940 67 NA NA NOT_NAMED 1940-09-19 15:00:00 TS 13.5775 -83.7350 main 0 0 P_____________ AL061940 13.5775 -83.7350 TS 37 0 11 320
1940263N12279 1940 67 NA NA NOT_NAMED 1940-09-19 18:00:00 TS 14.0000 -84.1000 35 hurdat_atl main 0 0 O_____________ hurdat_atl AL061940 14.0000 -84.1000 TS 35 0 11 320
1940263N12279 1940 67 NA NA NOT_NAMED 1940-09-19 21:00:00 TS 14.4075 -84.4576 main 0 0 P_____________ AL061940 14.4075 -84.4576 TS 32 -1 11 320
1940263N12279 1940 67 NA NA NOT_NAMED 1940-09-20 00:00:00 TS 14.8000 -84.8000 30 hurdat_atl main 0 0 O_____________ hurdat_atl AL061940 14.8000 -84.8000 TD 30 -1 10 320
1940263N12279 1940 67 NA NA NOT_NAMED 1940-09-20 03:00:00 TS 15.1499 -85.1077 main 0 0 P_____________ AL061940 15.1499 -85.1077 TD 30 -1 9 320
1940263N12279 1940 67 NA NA NOT_NAMED 1940-09-20 06:00:00 TS 15.5000 -85.4000 30 hurdat_atl main 0 0 O_____________ hurdat_atl AL061940 15.5000 -85.4000 TD 30 -1 9 323
1940263N12279 1940 67 NA NA NOT_NAMED 1940-09-20 09:00:00 TS 15.8924 -85.6926 main 0 0 P_____________ AL061940 15.8924 -85.6926 TD 32 -1 10 324
1940263N12279 1940 67 NA CS NOT_NAMED 1940-09-20 12:00:00 TS 16.3000 -86.0000 35 hurdat_atl main 46 46 O_____________ hurdat_atl AL061940 16.3000 -86.0000 TS 35 0 10 322
1940263N12279 1940 67 NA CS NOT_NAMED 1940-09-20 15:00:00 TS 16.7000 -86.3426 main 99 99 P_____________ AL061940 16.7000 -86.3426 TS 37 0 10 320
1940263N12279 1940 67 NA CS NOT_NAMED 1940-09-20 18:00:00 TS 17.1000 -86.7000 40 hurdat_atl main 147 115 O_____________ hurdat_atl AL061940 17.1000 -86.7000 TS 40 0 11 320
1940263N12279 1940 67 NA CS NOT_NAMED 1940-09-20 21:00:00 TS 17.5074 -87.0427 main 115 53 P_____________ AL061940 17.5074 -87.0427 TS 42 0 10 320
1940263N12279 1940 67 NA CS NOT_NAMED 1940-09-21 00:00:00 TS 17.9000 -87.4000 45 hurdat_atl main 53 0 O_____________ hurdat_atl AL061940 17.9000 -87.4000 TS 45 0 10 316
1940263N12279 1940 67 NA CS NOT_NAMED 1940-09-21 03:00:00 TS 18.2500 -87.7927 main 0 0 P_____________ AL061940 18.2500 -87.7927 TS 42 0 10 313
1940263N12279 1940 67 NA CS NOT_NAMED 1940-09-21 06:00:00 TS 18.6000 -88.2000 40 hurdat_atl main 10 0 O_____________ hurdat_atl AL061940 18.6000 -88.2000 TS 40 0 11 315
1940263N12279 1940 67 NA NA NOT_NAMED 1940-09-21 09:00:00 TS 18.9923 -88.5853 main 0 0 P_____________ AL061940 18.9923 -88.5853 TS 35 0 11 317
1940263N12279 1940 67 NA NA NOT_NAMED 1940-09-21 12:00:00 TS 19.4000 -89.0000 30 hurdat_atl main 0 0 O_____________ hurdat_atl AL061940 19.4000 -89.0000 TD 30 -1 12 314
1940263N12279 1940 67 NA NA NOT_NAMED 1940-09-21 15:00:00 TS 19.8000 -89.4851 main 0 0 P_____________ AL061940 19.8000 -89.4851 TD 30 -1 12 310
1940263N12279 1940 67 NA NA NOT_NAMED 1940-09-21 18:00:00 TS 20.2000 -90.0000 30 hurdat_atl main 0 0 O_____________ hurdat_atl AL061940 20.2000 -90.0000 TD 30 -1 12 310
1940263N12279 1940 67 NA GM NOT_NAMED 1940-09-21 21:00:00 TS 20.5924 -90.5003 main 10 10 P_____________ AL061940 20.5924 -90.5003 TD 30 -1 12 311
1940263N12279 1940 67 NA GM NOT_NAMED 1940-09-22 00:00:00 TS 21.0000 -91.0000 30 hurdat_atl main 66 66 O_____________ hurdat_atl AL061940 21.0000 -91.0000 TD 30 -1 13 312
1940263N12279 1940 67 NA GM NOT_NAMED 1940-09-22 03:00:00 TS 21.4274 -91.5004 main 128 128 P_____________ AL061940 21.4274 -91.5004 TD 32 -1 13 314
1940263N12279 1940 67 NA GM NOT_NAMED 1940-09-22 06:00:00 TS 21.9000 -92.0000 35 hurdat_atl main 197 197 O_____________ hurdat_atl AL061940 21.9000 -92.0000 TS 35 0 14 317
1940263N12279 1940 67 NA GM NOT_NAMED 1940-09-22 09:00:00 TS 22.4274 -92.5077 main 269 269 P_____________ AL061940 22.4274 -92.5077 TS 37 0 14 320
1940263N12279 1940 67 NA GM NOT_NAMED 1940-09-22 12:00:00 TS 23.0000 -93.0000 40 hurdat_atl main 349 349 O_____________ hurdat_atl AL061940 23.0000 -93.0000 TS 40 0 15 323
1940263N12279 1940 67 NA GM NOT_NAMED 1940-09-22 15:00:00 TS 23.5774 -93.4655 main 431 367 P_____________ AL061940 23.5774 -93.4655 TS 40 0 15 325
1940263N12279 1940 67 NA GM NOT_NAMED 1940-09-22 18:00:00 TS 24.2000 -93.9000 40 hurdat_atl main 367 301 O_____________ hurdat_atl AL061940 24.2000 -93.9000 TS 40 0 15 329
1940263N12279 1940 67 NA GM NOT_NAMED 1940-09-22 21:00:00 TS 24.8925 -94.3373 main 301 244 P_____________ AL061940 24.8925 -94.3373 TS 40 0 16 333
1940263N12279 1940 67 NA GM NOT_NAMED 1940-09-23 00:00:00 TS 25.6000 -94.7000 40 hurdat_atl main 244 219 O_____________ hurdat_atl AL061940 25.6000 -94.7000 TS 40 0 15 338
1940263N12279 1940 67 NA GM NOT_NAMED 1940-09-23 03:00:00 TS 26.2724 -94.9602 main 212 208 P_____________ AL061940 26.2724 -94.9602 TS 40 0 14 345
1940263N12279 1940 67 NA GM NOT_NAMED 1940-09-23 06:00:00 TS 26.9000 -95.1000 40 hurdat_atl main 208 151 O_____________ hurdat_atl AL061940 26.9000 -95.1000 TS 40 0 12 353
1940263N12279 1940 67 NA GM NOT_NAMED 1940-09-23 09:00:00 TS 27.4874 -95.1379 main 151 104 P_____________ AL061940 27.4874 -95.1379 TS 40 0 11 0
1940263N12279 1940 67 NA GM NOT_NAMED 1940-09-23 12:00:00 TS 28.0000 -95.1000 40 hurdat_atl main 104 63 O_____________ hurdat_atl AL061940 28.0000 -95.1000 TS 40 0 10 3
1940263N12279 1940 67 NA GM NOT_NAMED 1940-09-23 15:00:00 TS 28.4449 -95.0873 main 63 29 P_____________ AL061940 28.4449 -95.0873 TS 40 0 8 6
1940263N12279 1940 67 NA GM NOT_NAMED 1940-09-23 18:00:00 TS 28.8000 -95.0000 40 hurdat_atl main 29 22 O_____________ hurdat_atl AL061940 28.8000 -95.0000 TS 40 0 7 22
1940263N12279 1940 67 NA GM NOT_NAMED 1940-09-23 21:00:00 TS 29.0800 -94.7950 main 24 22 P_____________ AL061940 29.0800 -94.7950 TS 40 0 7 41
1940263N12279 1940 67 NA GM NOT_NAMED 1940-09-24 00:00:00 TS 29.3000 -94.5000 40 hurdat_atl main 24 14 O_____________ hurdat_atl AL061940 29.3000 -94.5000 TS 40 0 7 50
1940263N12279 1940 67 NA GM NOT_NAMED 1940-09-24 03:00:00 TS 29.5272 -94.1739 main 22 0 P_____________ AL061940 29.5272 -94.1739 TS 40 0 7 57
1940263N12279 1940 67 NA GM NOT_NAMED 1940-09-24 06:00:00 TS 29.7000 -93.8000 40 hurdat_atl main 0 0 O_____________ hurdat_atl AL061940 29.7000 -93.8000 TS 40 0 7 68
1940263N12279 1940 67 NA GM NOT_NAMED 1940-09-24 09:00:00 TS 29.8000 -93.4000 40 hurdat_atl main 0 0 O_____________ hurdat_atl AL061940 29.8000 -93.4000 L TS 40 0 9 57
1940263N12279 1940 67 NA NA NOT_NAMED 1940-09-24 12:00:00 TS 30.2000 -92.9000 35 1004 hurdat_atl main 0 0 O_____________ hurdat_atl AL061940 30.2000 -92.9000 TS 35 1004 0 11 51
1940263N12279 1940 67 NA NA NOT_NAMED 1940-09-24 15:00:00 TS 30.5202 -92.3733 main 0 0 P_____________ AL061940 30.5202 -92.3733 TS 32 -1 11 58
1940263N12279 1940 67 NA NA NOT_NAMED 1940-09-24 18:00:00 TS 30.8000 -91.8000 30 hurdat_atl main 0 0 O_____________ hurdat_atl AL061940 30.8000 -91.8000 TD 30 -1 12 60
1940263N12279 1940 67 NA NA NOT_NAMED 1940-09-24 21:00:00 TS 31.0989 -91.2167 main 0 0 P_____________ AL061940 31.0989 -91.2167 TD 25 -1 13 62
1940263N12279 1940 67 NA NA NOT_NAMED 1940-09-25 00:00:00 TS 31.4000 -90.5000 20 hurdat_atl main 0 0 O_____________ hurdat_atl AL061940 31.4000 -90.5000 TD 20 -1 15 67
1940263N12279 1940 67 NA NA NOT_NAMED 1940-09-25 03:00:00 TS 31.7024 -89.5667 main 0 0 P_____________ AL061940 31.7024 -89.5667 TD 17 -1 18 71
1940263N12279 1940 67 NA NA NOT_NAMED 1940-09-25 06:00:00 TS 32.0000 -88.5000 15 hurdat_atl main 0 O_____________ hurdat_atl AL061940 32.0000 -88.5000 TD 15 -1 19 72

IBTrACS Databaseについて

本データベースは、米国NOAAが公開する1842年以降の世界の熱帯低気圧のベストトラックデータアーカイブInternational Best Track Archive for Climate Stewardship (IBTrACS)を、ウェブで閲覧しやすい形式に変換したものです。

最終更新日:2021-10-21